Hove, Belgium
Current Conditions -  °F | °C
As of 11:20 AM on Saturday 22 Nov 2014 (Local Time) from EBAW Reporting Station
Clear Clear  
Wind Chill: 10°   Ceiling: Unl
Heat Index: 10°   Visibility: 6mi
Dew Point:   Wind: 7mph
Humidity: 82%   Direction: 160°SSE
Pressure: 30.03"   Gusts: NA
Location:  51.15°N, 4.47°E
Report Text: EBAW 221020Z 16006KT 130V190 CAVOK 10/07 Q1017 NOSIG
Loading
Personal Weather Stations






























Interactive Weather Map New forecast layout! Learn more

10-Day Weather Forecast

Advertisements
Track Severe Weather on mobile